createdAt,value
2022-12-31T00:41:42.272Z,37.5
2022-12-31T01:21:42.220Z,37.46
2022-12-31T02:21:42.146Z,37.75
2022-12-31T05:01:42.002Z,38.36
2022-12-31T05:21:41.923Z,38.55
2022-12-31T06:01:41.917Z,38.88
2022-12-31T08:41:42.987Z,38.83
2022-12-31T09:01:41.697Z,38.83
2022-12-31T09:21:41.593Z,38.83
2022-12-31T09:41:41.564Z,38.82
2022-12-31T10:01:41.707Z,38.82
2022-12-31T10:21:41.510Z,38.81
2022-12-31T10:41:41.485Z,38.81
2022-12-31T11:01:41.670Z,38.8
2022-12-31T11:21:41.872Z,38.8
2022-12-31T11:41:41.393Z,38.79
2022-12-31T12:01:41.413Z,38.77
2022-12-31T12:21:41.341Z,38.74
2022-12-31T12:41:41.071Z,38.73
2022-12-31T13:01:41.369Z,38.7
2022-12-31T13:21:41.331Z,38.69
2022-12-31T13:41:41.228Z,38.67
2022-12-31T14:01:41.308Z,38.66
2022-12-31T14:21:41.228Z,38.64
2022-12-31T14:41:41.142Z,38.65
2022-12-31T15:01:41.194Z,38.63
2022-12-31T15:21:41.108Z,38.61
2022-12-31T15:41:56.159Z,38.6
2022-12-31T16:01:41.185Z,38.58
2022-12-31T16:21:41.008Z,38.56
2022-12-31T16:41:41.010Z,38.55
2022-12-31T17:01:41.037Z,38.53
2022-12-31T17:21:40.928Z,38.5
2022-12-31T17:41:40.870Z,38.47
2022-12-31T18:01:41.037Z,38.44
2022-12-31T18:21:40.832Z,38.42
2022-12-31T18:41:40.820Z,38.4
2022-12-31T19:01:40.982Z,38.39
2022-12-31T19:21:40.771Z,38.37
2022-12-31T19:41:40.739Z,38.35
2022-12-31T20:01:40.601Z,38.32
2022-12-31T20:21:40.676Z,38.31
2022-12-31T20:41:40.665Z,38.3
2022-12-31T21:02:19.169Z,38.29
2022-12-31T21:21:40.615Z,38.29
2022-12-31T21:41:40.582Z,38.28
2022-12-31T22:21:40.500Z,38.23
2022-12-31T23:01:40.500Z,38.16
2022-12-31T23:21:40.434Z,38.14
